sensor_id;sensor_type;location;lat;lon;timestamp;P1;durP1;ratioP1;P2;durP2;ratioP2
4700;SDS011;8724;51.272;6.554;2023-07-31T00:01:58;7.40;;;3.53;;
4700;SDS011;8724;51.272;6.554;2023-07-31T00:04:26;5.00;;;3.57;;
4700;SDS011;8724;51.272;6.554;2023-07-31T00:06:55;9.07;;;4.33;;
4700;SDS011;8724;51.272;6.554;2023-07-31T00:09:23;10.33;;;3.33;;
4700;SDS011;8724;51.272;6.554;2023-07-31T00:11:52;9.67;;;3.60;;
4700;SDS011;8724;51.272;6.554;2023-07-31T00:14:20;9.33;;;4.10;;
4700;SDS011;8724;51.272;6.554;2023-07-31T00:16:50;7.53;;;3.97;;
4700;SDS011;8724;51.272;6.554;2023-07-31T00:19:18;7.87;;;4.70;;
4700;SDS011;8724;51.272;6.554;2023-07-31T00:21:47;6.63;;;4.00;;
4700;SDS011;8724;51.272;6.554;2023-07-31T00:24:15;6.87;;;4.37;;
4700;SDS011;8724;51.272;6.554;2023-07-31T00:26:44;7.80;;;4.77;;
4700;SDS011;8724;51.272;6.554;2023-07-31T00:29:12;6.37;;;3.50;;
4700;SDS011;8724;51.272;6.554;2023-07-31T00:31:40;5.60;;;3.90;;
4700;SDS011;8724;51.272;6.554;2023-07-31T00:34:10;8.17;;;4.03;;
4700;SDS011;8724;51.272;6.554;2023-07-31T00:36:39;9.23;;;3.70;;
4700;SDS011;8724;51.272;6.554;2023-07-31T00:39:07;6.47;;;3.77;;
4700;SDS011;8724;51.272;6.554;2023-07-31T00:41:36;7.73;;;4.13;;
4700;SDS011;8724;51.272;6.554;2023-07-31T00:44:04;5.47;;;4.00;;
4700;SDS011;8724;51.272;6.554;2023-07-31T00:46:33;4.27;;;3.17;;
4700;SDS011;8724;51.272;6.554;2023-07-31T00:49:02;8.10;;;3.97;;
4700;SDS011;8724;51.272;6.554;2023-07-31T00:54:25;6.70;;;3.67;;
4700;SDS011;8724;51.272;6.554;2023-07-31T00:56:57;6.50;;;3.60;;
4700;SDS011;8724;51.272;6.554;2023-07-31T00:59:27;7.20;;;3.70;;
4700;SDS011;8724;51.272;6.554;2023-07-31T01:01:56;6.50;;;4.67;;
4700;SDS011;8724;51.272;6.554;2023-07-31T01:04:24;7.00;;;3.50;;
4700;SDS011;8724;51.272;6.554;2023-07-31T01:06:55;6.43;;;3.80;;
4700;SDS011;8724;51.272;6.554;2023-07-31T01:09:35;6.17;;;3.37;;
4700;SDS011;8724;51.272;6.554;2023-07-31T01:12:13;7.47;;;3.50;;
4700;SDS011;8724;51.272;6.554;2023-07-31T01:14:50;7.07;;;3.47;;
4700;SDS011;8724;51.272;6.554;2023-07-31T01:17:20;4.93;;;3.30;;
4700;SDS011;8724;51.272;6.554;2023-07-31T01:19:48;5.73;;;3.63;;
4700;SDS011;8724;51.272;6.554;2023-07-31T01:22:26;6.23;;;3.10;;
4700;SDS011;8724;51.272;6.554;2023-07-31T01:25:06;5.00;;;3.40;;
4700;SDS011;8724;51.272;6.554;2023-07-31T01:27:48;16.17;;;4.10;;
4700;SDS011;8724;51.272;6.554;2023-07-31T01:30:22;7.60;;;3.40;;
4700;SDS011;8724;51.272;6.554;2023-07-31T01:32:55;6.30;;;3.13;;
4700;SDS011;8724;51.272;6.554;2023-07-31T01:35:25;7.67;;;3.90;;
4700;SDS011;8724;51.272;6.554;2023-07-31T01:37:53;6.23;;;3.67;;
4700;SDS011;8724;51.272;6.554;2023-07-31T01:40:22;7.33;;;3.87;;
4700;SDS011;8724;51.272;6.554;2023-07-31T01:42:52;7.57;;;4.00;;
4700;SDS011;8724;51.272;6.554;2023-07-31T01:45:20;5.97;;;4.30;;
4700;SDS011;8724;51.272;6.554;2023-07-31T01:47:49;9.77;;;4.60;;
4700;SDS011;8724;51.272;6.554;2023-07-31T01:50:18;5.30;;;3.47;;
4700;SDS011;8724;51.272;6.554;2023-07-31T01:52:46;5.53;;;3.53;;
4700;SDS011;8724;51.272;6.554;2023-07-31T01:55:14;4.83;;;3.47;;
4700;SDS011;8724;51.272;6.554;2023-07-31T01:57:43;12.73;;;4.07;;
4700;SDS011;8724;51.272;6.554;2023-07-31T02:00:13;7.30;;;3.30;;
4700;SDS011;8724;51.272;6.554;2023-07-31T02:02:43;6.87;;;3.70;;
4700;SDS011;8724;51.272;6.554;2023-07-31T02:05:14;6.20;;;3.23;;
4700;SDS011;8724;51.272;6.554;2023-07-31T02:07:43;6.77;;;3.33;;
4700;SDS011;8724;51.272;6.554;2023-07-31T02:10:12;6.23;;;5.00;;
4700;SDS011;8724;51.272;6.554;2023-07-31T02:12:41;7.97;;;3.53;;
4700;SDS011;8724;51.272;6.554;2023-07-31T02:15:13;5.90;;;3.20;;
4700;SDS011;8724;51.272;6.554;2023-07-31T02:17:42;7.20;;;3.67;;
4700;SDS011;8724;51.272;6.554;2023-07-31T02:20:13;5.97;;;4.30;;
4700;SDS011;8724;51.272;6.554;2023-07-31T02:22:42;6.20;;;3.93;;
4700;SDS011;8724;51.272;6.554;2023-07-31T02:25:10;12.27;;;4.10;;
4700;SDS011;8724;51.272;6.554;2023-07-31T02:27:39;4.27;;;3.10;;
4700;SDS011;8724;51.272;6.554;2023-07-31T02:30:08;9.70;;;4.00;;
4700;SDS011;8724;51.272;6.554;2023-07-31T02:32:38;6.67;;;3.53;;
4700;SDS011;8724;51.272;6.554;2023-07-31T02:35:07;7.67;;;3.70;;
4700;SDS011;8724;51.272;6.554;2023-07-31T02:37:36;8.90;;;3.50;;
4700;SDS011;8724;51.272;6.554;2023-07-31T02:40:05;7.10;;;3.60;;
4700;SDS011;8724;51.272;6.554;2023-07-31T02:42:35;7.10;;;4.17;;
4700;SDS011;8724;51.272;6.554;2023-07-31T02:45:04;7.10;;;3.60;;
4700;SDS011;8724;51.272;6.554;2023-07-31T02:47:33;8.20;;;3.43;;
4700;SDS011;8724;51.272;6.554;2023-07-31T02:50:03;7.03;;;3.87;;
4700;SDS011;8724;51.272;6.554;2023-07-31T02:52:32;7.50;;;4.90;;
4700;SDS011;8724;51.272;6.554;2023-07-31T02:55:01;6.73;;;3.77;;
4700;SDS011;8724;51.272;6.554;2023-07-31T02:57:29;8.27;;;4.00;;
4700;SDS011;8724;51.272;6.554;2023-07-31T02:59:58;9.17;;;3.80;;
4700;SDS011;8724;51.272;6.554;2023-07-31T03:02:26;8.93;;;4.30;;
4700;SDS011;8724;51.272;6.554;2023-07-31T03:04:55;6.33;;;3.90;;
4700;SDS011;8724;51.272;6.554;2023-07-31T03:07:24;9.07;;;4.17;;
4700;SDS011;8724;51.272;6.554;2023-07-31T03:09:53;9.17;;;3.70;;
4700;SDS011;8724;51.272;6.554;2023-07-31T03:12:21;5.23;;;3.10;;
4700;SDS011;8724;51.272;6.554;2023-07-31T03:14:50;8.60;;;3.70;;
4700;SDS011;8724;51.272;6.554;2023-07-31T03:17:18;4.63;;;3.60;;
4700;SDS011;8724;51.272;6.554;2023-07-31T03:19:46;5.70;;;3.60;;
4700;SDS011;8724;51.272;6.554;2023-07-31T03:22:15;8.70;;;3.73;;
4700;SDS011;8724;51.272;6.554;2023-07-31T03:24:46;5.90;;;3.87;;
4700;SDS011;8724;51.272;6.554;2023-07-31T03:27:15;5.90;;;4.00;;
4700;SDS011;8724;51.272;6.554;2023-07-31T03:29:43;5.93;;;3.77;;
4700;SDS011;8724;51.272;6.554;2023-07-31T03:32:12;9.17;;;3.90;;
4700;SDS011;8724;51.272;6.554;2023-07-31T03:34:41;6.50;;;3.60;;
4700;SDS011;8724;51.272;6.554;2023-07-31T03:37:09;6.60;;;4.40;;
4700;SDS011;8724;51.272;6.554;2023-07-31T03:39:37;5.80;;;4.00;;
4700;SDS011;8724;51.272;6.554;2023-07-31T03:42:07;5.10;;;3.10;;
4700;SDS011;8724;51.272;6.554;2023-07-31T03:44:36;7.97;;;3.90;;
4700;SDS011;8724;51.272;6.554;2023-07-31T03:47:04;5.97;;;4.13;;
4700;SDS011;8724;51.272;6.554;2023-07-31T03:49:33;5.40;;;3.80;;
4700;SDS011;8724;51.272;6.554;2023-07-31T03:52:02;5.67;;;3.50;;
4700;SDS011;8724;51.272;6.554;2023-07-31T03:54:30;6.17;;;3.70;;
4700;SDS011;8724;51.272;6.554;2023-07-31T03:56:59;6.40;;;3.23;;
4700;SDS011;8724;51.272;6.554;2023-07-31T03:59:29;4.87;;;3.80;;
4700;SDS011;8724;51.272;6.554;2023-07-31T04:01:57;7.27;;;3.83;;
4700;SDS011;8724;51.272;6.554;2023-07-31T04:04:26;7.73;;;4.00;;
4700;SDS011;8724;51.272;6.554;2023-07-31T04:06:54;6.80;;;3.50;;
4700;SDS011;8724;51.272;6.554;2023-07-31T04:09:23;8.00;;;3.17;;
4700;SDS011;8724;51.272;6.554;2023-07-31T04:11:51;8.40;;;4.20;;
4700;SDS011;8724;51.272;6.554;2023-07-31T04:14:19;6.93;;;3.80;;
4700;SDS011;8724;51.272;6.554;2023-07-31T04:16:49;5.90;;;4.33;;
4700;SDS011;8724;51.272;6.554;2023-07-31T04:19:19;6.03;;;3.97;;
4700;SDS011;8724;51.272;6.554;2023-07-31T04:21:47;4.60;;;3.40;;
4700;SDS011;8724;51.272;6.554;2023-07-31T04:24:16;8.60;;;3.63;;
4700;SDS011;8724;51.272;6.554;2023-07-31T04:26:51;7.27;;;3.90;;
4700;SDS011;8724;51.272;6.554;2023-07-31T04:29:20;5.40;;;3.77;;
4700;SDS011;8724;51.272;6.554;2023-07-31T04:31:51;3.80;;;2.83;;
4700;SDS011;8724;51.272;6.554;2023-07-31T04:34:19;4.53;;;3.23;;
4700;SDS011;8724;51.272;6.554;2023-07-31T04:36:48;5.17;;;3.80;;
4700;SDS011;8724;51.272;6.554;2023-07-31T04:39:16;11.83;;;3.93;;
4700;SDS011;8724;51.272;6.554;2023-07-31T04:41:44;4.30;;;3.53;;
4700;SDS011;8724;51.272;6.554;2023-07-31T04:44:13;10.43;;;4.70;;
4700;SDS011;8724;51.272;6.554;2023-07-31T04:46:42;4.60;;;3.83;;
4700;SDS011;8724;51.272;6.554;2023-07-31T04:49:12;5.07;;;3.80;;
4700;SDS011;8724;51.272;6.554;2023-07-31T04:51:40;5.33;;;3.63;;
4700;SDS011;8724;51.272;6.554;2023-07-31T04:54:09;4.37;;;3.97;;
4700;SDS011;8724;51.272;6.554;2023-07-31T04:56:39;5.30;;;3.67;;
4700;SDS011;8724;51.272;6.554;2023-07-31T04:59:26;5.60;;;3.63;;
4700;SDS011;8724;51.272;6.554;2023-07-31T05:02:11;5.30;;;3.50;;
4700;SDS011;8724;51.272;6.554;2023-07-31T05:04:45;6.70;;;4.10;;
4700;SDS011;8724;51.272;6.554;2023-07-31T05:07:23;8.50;;;3.90;;
4700;SDS011;8724;51.272;6.554;2023-07-31T05:09:57;10.00;;;4.27;;
4700;SDS011;8724;51.272;6.554;2023-07-31T05:12:27;6.20;;;4.00;;
4700;SDS011;8724;51.272;6.554;2023-07-31T05:14:56;5.67;;;3.70;;
4700;SDS011;8724;51.272;6.554;2023-07-31T05:17:30;4.30;;;3.47;;
4700;SDS011;8724;51.272;6.554;2023-07-31T05:20:04;5.87;;;4.10;;
4700;SDS011;8724;51.272;6.554;2023-07-31T05:22:46;4.53;;;3.63;;
4700;SDS011;8724;51.272;6.554;2023-07-31T05:25:17;9.83;;;3.77;;
4700;SDS011;8724;51.272;6.554;2023-07-31T05:27:52;4.70;;;3.67;;
4700;SDS011;8724;51.272;6.554;2023-07-31T05:30:26;5.33;;;3.90;;
4700;SDS011;8724;51.272;6.554;2023-07-31T05:33:03;4.23;;;3.40;;
4700;SDS011;8724;51.272;6.554;2023-07-31T05:35:40;6.07;;;3.57;;
4700;SDS011;8724;51.272;6.554;2023-07-31T05:38:24;3.60;;;3.10;;
4700;SDS011;8724;51.272;6.554;2023-07-31T05:41:02;6.00;;;4.53;;
4700;SDS011;8724;51.272;6.554;2023-07-31T05:43:46;3.73;;;3.40;;
4700;SDS011;8724;51.272;6.554;2023-07-31T05:50:04;7.40;;;5.07;;
4700;SDS011;8724;51.272;6.554;2023-07-31T05:53:02;5.70;;;4.10;;
4700;SDS011;8724;51.272;6.554;2023-07-31T05:55:34;8.90;;;5.00;;
4700;SDS011;8724;51.272;6.554;2023-07-31T05:58:05;6.87;;;4.67;;
4700;SDS011;8724;51.272;6.554;2023-07-31T06:00:34;6.97;;;4.10;;
4700;SDS011;8724;51.272;6.554;2023-07-31T06:03:03;4.27;;;3.87;;
4700;SDS011;8724;51.272;6.554;2023-07-31T06:05:32;4.67;;;3.70;;
4700;SDS011;8724;51.272;6.554;2023-07-31T06:08:02;4.50;;;3.60;;
4700;SDS011;8724;51.272;6.554;2023-07-31T06:10:31;4.57;;;3.77;;
4700;SDS011;8724;51.272;6.554;2023-07-31T06:12:59;7.33;;;4.13;;
4700;SDS011;8724;51.272;6.554;2023-07-31T06:15:28;4.83;;;3.70;;
4700;SDS011;8724;51.272;6.554;2023-07-31T06:17:56;4.53;;;3.30;;
4700;SDS011;8724;51.272;6.554;2023-07-31T06:20:25;6.27;;;3.50;;
4700;SDS011;8724;51.272;6.554;2023-07-31T06:22:54;4.33;;;3.50;;
4700;SDS011;8724;51.272;6.554;2023-07-31T06:25:24;8.57;;;3.87;;
4700;SDS011;8724;51.272;6.554;2023-07-31T06:27:53;4.90;;;3.17;;
4700;SDS011;8724;51.272;6.554;2023-07-31T06:30:21;4.83;;;3.33;;
4700;SDS011;8724;51.272;6.554;2023-07-31T06:32:50;4.73;;;4.03;;
4700;SDS011;8724;51.272;6.554;2023-07-31T06:35:19;11.63;;;3.63;;
4700;SDS011;8724;51.272;6.554;2023-07-31T06:37:48;3.43;;;3.10;;
4700;SDS011;8724;51.272;6.554;2023-07-31T06:40:17;3.87;;;3.37;;
4700;SDS011;8724;51.272;6.554;2023-07-31T06:42:47;5.10;;;3.20;;
4700;SDS011;8724;51.272;6.554;2023-07-31T06:45:16;13.70;;;3.50;;
4700;SDS011;8724;51.272;6.554;2023-07-31T06:47:45;4.00;;;3.30;;
4700;SDS011;8724;51.272;6.554;2023-07-31T06:50:14;4.17;;;3.57;;
4700;SDS011;8724;51.272;6.554;2023-07-31T06:52:43;4.10;;;2.97;;
4700;SDS011;8724;51.272;6.554;2023-07-31T06:55:17;4.43;;;3.53;;
4700;SDS011;8724;51.272;6.554;2023-07-31T06:57:49;4.30;;;3.50;;
4700;SDS011;8724;51.272;6.554;2023-07-31T07:00:21;5.30;;;3.67;;
4700;SDS011;8724;51.272;6.554;2023-07-31T07:02:51;5.20;;;3.37;;
4700;SDS011;8724;51.272;6.554;2023-07-31T07:05:20;5.40;;;3.80;;
4700;SDS011;8724;51.272;6.554;2023-07-31T07:07:49;4.60;;;3.23;;
4700;SDS011;8724;51.272;6.554;2023-07-31T07:10:19;4.47;;;3.03;;
4700;SDS011;8724;51.272;6.554;2023-07-31T07:12:49;7.60;;;3.70;;
4700;SDS011;8724;51.272;6.554;2023-07-31T07:15:20;4.77;;;3.23;;
4700;SDS011;8724;51.272;6.554;2023-07-31T07:17:49;3.90;;;3.20;;
4700;SDS011;8724;51.272;6.554;2023-07-31T07:20:17;5.20;;;3.70;;
4700;SDS011;8724;51.272;6.554;2023-07-31T07:22:46;5.47;;;3.30;;
4700;SDS011;8724;51.272;6.554;2023-07-31T07:25:15;5.60;;;2.83;;
4700;SDS011;8724;51.272;6.554;2023-07-31T07:27:44;4.90;;;3.10;;
4700;SDS011;8724;51.272;6.554;2023-07-31T07:30:14;4.73;;;3.00;;
4700;SDS011;8724;51.272;6.554;2023-07-31T07:32:44;6.97;;;3.50;;
4700;SDS011;8724;51.272;6.554;2023-07-31T07:35:12;5.60;;;3.77;;
4700;SDS011;8724;51.272;6.554;2023-07-31T07:37:41;4.20;;;2.93;;
4700;SDS011;8724;51.272;6.554;2023-07-31T07:40:10;4.60;;;3.17;;
4700;SDS011;8724;51.272;6.554;2023-07-31T07:42:39;3.57;;;3.03;;
4700;SDS011;8724;51.272;6.554;2023-07-31T07:45:08;3.83;;;2.70;;
4700;SDS011;8724;51.272;6.554;2023-07-31T07:47:40;3.50;;;2.43;;
4700;SDS011;8724;51.272;6.554;2023-07-31T07:50:09;4.20;;;3.47;;
4700;SDS011;8724;51.272;6.554;2023-07-31T07:52:38;3.80;;;2.90;;
4700;SDS011;8724;51.272;6.554;2023-07-31T07:55:06;3.53;;;2.87;;
4700;SDS011;8724;51.272;6.554;2023-07-31T07:57:35;4.60;;;3.17;;
4700;SDS011;8724;51.272;6.554;2023-07-31T08:00:04;5.30;;;2.87;;
4700;SDS011;8724;51.272;6.554;2023-07-31T08:02:41;3.47;;;2.80;;
4700;SDS011;8724;51.272;6.554;2023-07-31T08:05:11;4.00;;;3.00;;
4700;SDS011;8724;51.272;6.554;2023-07-31T08:07:40;3.83;;;2.97;;
4700;SDS011;8724;51.272;6.554;2023-07-31T08:10:09;3.10;;;2.80;;
4700;SDS011;8724;51.272;6.554;2023-07-31T08:12:37;3.93;;;3.30;;
4700;SDS011;8724;51.272;6.554;2023-07-31T08:15:06;3.40;;;2.40;;
4700;SDS011;8724;51.272;6.554;2023-07-31T08:17:35;3.63;;;2.40;;
4700;SDS011;8724;51.272;6.554;2023-07-31T08:20:06;4.47;;;3.00;;
4700;SDS011;8724;51.272;6.554;2023-07-31T08:22:36;3.03;;;2.70;;
4700;SDS011;8724;51.272;6.554;2023-07-31T08:25:04;3.70;;;2.60;;
4700;SDS011;8724;51.272;6.554;2023-07-31T08:27:34;3.93;;;2.93;;
4700;SDS011;8724;51.272;6.554;2023-07-31T08:30:03;4.80;;;2.67;;
4700;SDS011;8724;51.272;6.554;2023-07-31T08:32:32;3.63;;;2.77;;
4700;SDS011;8724;51.272;6.554;2023-07-31T08:35:01;4.60;;;2.53;;
4700;SDS011;8724;51.272;6.554;2023-07-31T08:37:31;3.47;;;2.70;;
4700;SDS011;8724;51.272;6.554;2023-07-31T08:40:00;4.30;;;2.83;;
4700;SDS011;8724;51.272;6.554;2023-07-31T08:42:29;4.37;;;2.83;;
4700;SDS011;8724;51.272;6.554;2023-07-31T08:44:58;2.80;;;2.50;;
4700;SDS011;8724;51.272;6.554;2023-07-31T08:47:30;3.10;;;2.40;;
4700;SDS011;8724;51.272;6.554;2023-07-31T08:49:59;4.73;;;2.93;;
4700;SDS011;8724;51.272;6.554;2023-07-31T08:52:31;3.83;;;3.30;;
4700;SDS011;8724;51.272;6.554;2023-07-31T08:55:00;3.43;;;2.43;;
4700;SDS011;8724;51.272;6.554;2023-07-31T08:57:29;2.70;;;2.50;;
4700;SDS011;8724;51.272;6.554;2023-07-31T08:59:58;2.70;;;2.50;;
4700;SDS011;8724;51.272;6.554;2023-07-31T09:02:29;10.07;;;2.97;;
4700;SDS011;8724;51.272;6.554;2023-07-31T09:05:04;2.03;;;1.93;;
4700;SDS011;8724;51.272;6.554;2023-07-31T09:07:36;2.80;;;2.57;;
4700;SDS011;8724;51.272;6.554;2023-07-31T09:10:05;2.67;;;2.47;;
4700;SDS011;8724;51.272;6.554;2023-07-31T09:12:34;2.90;;;2.33;;
4700;SDS011;8724;51.272;6.554;2023-07-31T09:15:04;2.53;;;2.33;;
4700;SDS011;8724;51.272;6.554;2023-07-31T09:17:43;3.03;;;2.73;;
4700;SDS011;8724;51.272;6.554;2023-07-31T09:20:15;2.47;;;2.20;;
4700;SDS011;8724;51.272;6.554;2023-07-31T09:22:46;2.20;;;2.10;;
4700;SDS011;8724;51.272;6.554;2023-07-31T09:25:16;2.80;;;2.60;;
4700;SDS011;8724;51.272;6.554;2023-07-31T09:27:46;2.23;;;2.03;;
4700;SDS011;8724;51.272;6.554;2023-07-31T09:30:16;2.40;;;2.20;;
4700;SDS011;8724;51.272;6.554;2023-07-31T09:32:45;5.50;;;2.67;;
4700;SDS011;8724;51.272;6.554;2023-07-31T09:35:18;2.90;;;2.20;;
4700;SDS011;8724;51.272;6.554;2023-07-31T09:37:50;3.90;;;2.60;;
4700;SDS011;8724;51.272;6.554;2023-07-31T09:40:26;3.10;;;2.30;;
4700;SDS011;8724;51.272;6.554;2023-07-31T09:42:56;2.60;;;2.40;;
4700;SDS011;8724;51.272;6.554;2023-07-31T09:45:25;3.83;;;2.77;;
4700;SDS011;8724;51.272;6.554;2023-07-31T09:48:07;3.57;;;2.30;;
4700;SDS011;8724;51.272;6.554;2023-07-31T09:50:37;3.40;;;2.57;;
4700;SDS011;8724;51.272;6.554;2023-07-31T09:53:08;3.07;;;1.73;;
4700;SDS011;8724;51.272;6.554;2023-07-31T09:55:38;3.07;;;2.87;;
4700;SDS011;8724;51.272;6.554;2023-07-31T09:58:08;8.57;;;3.37;;
4700;SDS011;8724;51.272;6.554;2023-07-31T10:00:37;8.27;;;3.70;;
4700;SDS011;8724;51.272;6.554;2023-07-31T10:03:07;5.80;;;3.60;;
4700;SDS011;8724;51.272;6.554;2023-07-31T10:05:37;6.87;;;3.30;;
4700;SDS011;8724;51.272;6.554;2023-07-31T10:08:10;6.63;;;3.20;;
4700;SDS011;8724;51.272;6.554;2023-07-31T10:10:41;4.47;;;3.40;;
4700;SDS011;8724;51.272;6.554;2023-07-31T10:13:11;7.33;;;3.87;;
4700;SDS011;8724;51.272;6.554;2023-07-31T10:15:40;5.30;;;3.43;;
4700;SDS011;8724;51.272;6.554;2023-07-31T10:18:10;5.60;;;3.43;;
4700;SDS011;8724;51.272;6.554;2023-07-31T10:20:40;4.27;;;3.40;;
4700;SDS011;8724;51.272;6.554;2023-07-31T10:23:11;6.37;;;2.67;;
4700;SDS011;8724;51.272;6.554;2023-07-31T10:25:40;3.57;;;2.80;;
4700;SDS011;8724;51.272;6.554;2023-07-31T10:28:10;2.80;;;2.50;;
4700;SDS011;8724;51.272;6.554;2023-07-31T10:30:39;3.20;;;2.23;;
4700;SDS011;8724;51.272;6.554;2023-07-31T10:33:09;2.70;;;2.50;;
4700;SDS011;8724;51.272;6.554;2023-07-31T10:35:38;2.50;;;2.13;;
4700;SDS011;8724;51.272;6.554;2023-07-31T10:38:09;4.60;;;2.40;;
4700;SDS011;8724;51.272;6.554;2023-07-31T10:40:40;2.57;;;2.37;;
4700;SDS011;8724;51.272;6.554;2023-07-31T10:43:09;3.77;;;2.53;;
4700;SDS011;8724;51.272;6.554;2023-07-31T10:45:51;7.30;;;2.90;;
4700;SDS011;8724;51.272;6.554;2023-07-31T10:48:21;4.67;;;2.67;;
4700;SDS011;8724;51.272;6.554;2023-07-31T10:50:51;2.90;;;2.50;;
4700;SDS011;8724;51.272;6.554;2023-07-31T10:53:25;4.40;;;2.87;;
4700;SDS011;8724;51.272;6.554;2023-07-31T10:55:57;2.90;;;2.60;;
4700;SDS011;8724;51.272;6.554;2023-07-31T10:58:26;2.73;;;2.13;;
4700;SDS011;8724;51.272;6.554;2023-07-31T11:00:56;2.97;;;2.50;;
4700;SDS011;8724;51.272;6.554;2023-07-31T11:03:27;5.63;;;2.33;;
4700;SDS011;8724;51.272;6.554;2023-07-31T11:06:09;3.00;;;2.43;;
4700;SDS011;8724;51.272;6.554;2023-07-31T11:08:44;3.60;;;2.60;;
4700;SDS011;8724;51.272;6.554;2023-07-31T11:11:14;2.73;;;2.47;;
4700;SDS011;8724;51.272;6.554;2023-07-31T11:13:44;2.40;;;2.20;;
4700;SDS011;8724;51.272;6.554;2023-07-31T11:16:16;2.50;;;2.03;;
4700;SDS011;8724;51.272;6.554;2023-07-31T11:18:46;2.63;;;2.40;;
4700;SDS011;8724;51.272;6.554;2023-07-31T11:21:16;2.10;;;1.83;;
4700;SDS011;8724;51.272;6.554;2023-07-31T11:23:47;2.43;;;1.90;;
4700;SDS011;8724;51.272;6.554;2023-07-31T11:26:16;2.33;;;2.07;;
4700;SDS011;8724;51.272;6.554;2023-07-31T11:28:46;2.10;;;1.90;;
4700;SDS011;8724;51.272;6.554;2023-07-31T11:31:15;3.20;;;1.83;;
4700;SDS011;8724;51.272;6.554;2023-07-31T11:33:45;2.33;;;1.83;;
4700;SDS011;8724;51.272;6.554;2023-07-31T11:36:14;2.17;;;1.77;;
4700;SDS011;8724;51.272;6.554;2023-07-31T11:38:44;2.30;;;1.97;;
4700;SDS011;8724;51.272;6.554;2023-07-31T11:41:15;3.03;;;1.80;;
4700;SDS011;8724;51.272;6.554;2023-07-31T11:43:45;2.00;;;1.80;;
4700;SDS011;8724;51.272;6.554;2023-07-31T11:46:14;2.23;;;1.50;;
4700;SDS011;8724;51.272;6.554;2023-07-31T11:48:44;1.60;;;1.50;;
4700;SDS011;8724;51.272;6.554;2023-07-31T11:51:13;1.90;;;1.80;;
4700;SDS011;8724;51.272;6.554;2023-07-31T11:53:43;2.30;;;1.80;;
4700;SDS011;8724;51.272;6.554;2023-07-31T11:56:17;7.03;;;1.90;;
4700;SDS011;8724;51.272;6.554;2023-07-31T11:58:47;2.33;;;1.80;;
4700;SDS011;8724;51.272;6.554;2023-07-31T12:01:19;1.60;;;1.50;;
4700;SDS011;8724;51.272;6.554;2023-07-31T12:03:49;1.80;;;1.70;;
4700;SDS011;8724;51.272;6.554;2023-07-31T12:06:18;1.70;;;1.60;;
4700;SDS011;8724;51.272;6.554;2023-07-31T12:08:48;2.17;;;1.90;;
4700;SDS011;8724;51.272;6.554;2023-07-31T12:11:18;1.80;;;1.67;;
4700;SDS011;8724;51.272;6.554;2023-07-31T12:13:47;3.87;;;2.20;;
4700;SDS011;8724;51.272;6.554;2023-07-31T12:16:16;2.33;;;1.73;;
4700;SDS011;8724;51.272;6.554;2023-07-31T12:18:44;1.93;;;1.83;;
4700;SDS011;8724;51.272;6.554;2023-07-31T12:21:13;1.97;;;1.70;;
4700;SDS011;8724;51.272;6.554;2023-07-31T12:23:43;2.73;;;2.00;;
4700;SDS011;8724;51.272;6.554;2023-07-31T12:26:12;1.90;;;1.70;;
4700;SDS011;8724;51.272;6.554;2023-07-31T12:28:44;1.77;;;1.67;;
4700;SDS011;8724;51.272;6.554;2023-07-31T12:31:15;2.90;;;1.57;;
4700;SDS011;8724;51.272;6.554;2023-07-31T12:33:45;2.90;;;1.60;;
4700;SDS011;8724;51.272;6.554;2023-07-31T12:36:16;2.50;;;2.07;;
4700;SDS011;8724;51.272;6.554;2023-07-31T12:38:46;2.10;;;1.90;;
4700;SDS011;8724;51.272;6.554;2023-07-31T12:41:15;2.23;;;1.90;;
4700;SDS011;8724;51.272;6.554;2023-07-31T12:43:45;1.83;;;1.73;;
4700;SDS011;8724;51.272;6.554;2023-07-31T12:46:14;1.77;;;1.63;;
4700;SDS011;8724;51.272;6.554;2023-07-31T12:48:43;1.80;;;1.70;;
4700;SDS011;8724;51.272;6.554;2023-07-31T12:51:12;2.63;;;1.93;;
4700;SDS011;8724;51.272;6.554;2023-07-31T12:53:41;1.90;;;1.80;;
4700;SDS011;8724;51.272;6.554;2023-07-31T12:56:09;5.90;;;2.27;;
4700;SDS011;8724;51.272;6.554;2023-07-31T12:58:38;2.27;;;2.07;;
4700;SDS011;8724;51.272;6.554;2023-07-31T13:01:08;2.13;;;2.03;;
4700;SDS011;8724;51.272;6.554;2023-07-31T13:03:36;2.20;;;2.00;;
4700;SDS011;8724;51.272;6.554;2023-07-31T13:06:06;11.00;;;2.57;;
4700;SDS011;8724;51.272;6.554;2023-07-31T13:08:34;2.10;;;2.00;;
4700;SDS011;8724;51.272;6.554;2023-07-31T13:11:02;2.77;;;2.57;;
4700;SDS011;8724;51.272;6.554;2023-07-31T13:13:31;2.63;;;2.37;;
4700;SDS011;8724;51.272;6.554;2023-07-31T13:16:00;2.90;;;2.57;;
4700;SDS011;8724;51.272;6.554;2023-07-31T13:18:30;4.70;;;2.77;;
4700;SDS011;8724;51.272;6.554;2023-07-31T13:20:59;6.80;;;2.87;;
4700;SDS011;8724;51.272;6.554;2023-07-31T13:23:27;3.17;;;2.87;;
4700;SDS011;8724;51.272;6.554;2023-07-31T13:25:55;3.77;;;2.40;;
4700;SDS011;8724;51.272;6.554;2023-07-31T13:28:24;3.97;;;3.00;;
4700;SDS011;8724;51.272;6.554;2023-07-31T13:30:52;3.47;;;2.63;;
4700;SDS011;8724;51.272;6.554;2023-07-31T13:33:21;5.97;;;2.93;;
4700;SDS011;8724;51.272;6.554;2023-07-31T13:36:05;4.03;;;3.23;;
4700;SDS011;8724;51.272;6.554;2023-07-31T13:38:34;4.60;;;3.00;;
4700;SDS011;8724;51.272;6.554;2023-07-31T13:41:02;3.10;;;2.60;;
4700;SDS011;8724;51.272;6.554;2023-07-31T13:43:32;3.60;;;3.30;;
4700;SDS011;8724;51.272;6.554;2023-07-31T13:46:01;3.63;;;3.07;;
4700;SDS011;8724;51.272;6.554;2023-07-31T13:48:34;3.90;;;3.37;;
4700;SDS011;8724;51.272;6.554;2023-07-31T13:51:03;3.37;;;3.07;;
4700;SDS011;8724;51.272;6.554;2023-07-31T13:53:33;2.77;;;2.57;;
4700;SDS011;8724;51.272;6.554;2023-07-31T13:56:01;4.43;;;2.73;;
4700;SDS011;8724;51.272;6.554;2023-07-31T13:58:30;3.17;;;2.87;;
4700;SDS011;8724;51.272;6.554;2023-07-31T14:01:00;4.77;;;3.00;;
4700;SDS011;8724;51.272;6.554;2023-07-31T14:03:30;4.20;;;3.00;;
4700;SDS011;8724;51.272;6.554;2023-07-31T14:05:59;3.53;;;2.70;;
4700;SDS011;8724;51.272;6.554;2023-07-31T14:08:29;3.10;;;2.57;;
4700;SDS011;8724;51.272;6.554;2023-07-31T14:10:57;5.40;;;2.50;;
4700;SDS011;8724;51.272;6.554;2023-07-31T14:13:26;3.57;;;2.90;;
4700;SDS011;8724;51.272;6.554;2023-07-31T14:15:55;4.37;;;3.30;;
4700;SDS011;8724;51.272;6.554;2023-07-31T14:18:23;4.93;;;2.70;;
4700;SDS011;8724;51.272;6.554;2023-07-31T14:20:52;2.97;;;2.63;;
4700;SDS011;8724;51.272;6.554;2023-07-31T14:23:21;2.87;;;2.57;;
4700;SDS011;8724;51.272;6.554;2023-07-31T14:25:51;3.27;;;2.97;;
4700;SDS011;8724;51.272;6.554;2023-07-31T14:28:19;3.40;;;2.87;;
4700;SDS011;8724;51.272;6.554;2023-07-31T14:30:48;4.23;;;3.17;;
4700;SDS011;8724;51.272;6.554;2023-07-31T14:33:16;2.77;;;2.57;;
4700;SDS011;8724;51.272;6.554;2023-07-31T14:35:45;3.50;;;3.20;;
4700;SDS011;8724;51.272;6.554;2023-07-31T14:38:13;2.50;;;2.30;;
4700;SDS011;8724;51.272;6.554;2023-07-31T14:40:42;6.50;;;2.90;;
4700;SDS011;8724;51.272;6.554;2023-07-31T14:43:12;4.70;;;3.10;;
4700;SDS011;8724;51.272;6.554;2023-07-31T14:45:40;3.53;;;2.67;;
4700;SDS011;8724;51.272;6.554;2023-07-31T14:48:09;3.57;;;3.07;;
4700;SDS011;8724;51.272;6.554;2023-07-31T14:50:37;4.50;;;3.27;;
4700;SDS011;8724;51.272;6.554;2023-07-31T14:53:06;4.87;;;3.30;;
4700;SDS011;8724;51.272;6.554;2023-07-31T14:55:34;4.00;;;2.70;;
4700;SDS011;8724;51.272;6.554;2023-07-31T14:58:03;4.40;;;3.20;;
4700;SDS011;8724;51.272;6.554;2023-07-31T15:00:33;3.47;;;3.17;;
4700;SDS011;8724;51.272;6.554;2023-07-31T15:03:01;3.40;;;2.50;;
4700;SDS011;8724;51.272;6.554;2023-07-31T15:05:30;3.57;;;3.27;;
4700;SDS011;8724;51.272;6.554;2023-07-31T15:07:59;5.37;;;3.40;;
4700;SDS011;8724;51.272;6.554;2023-07-31T15:10:28;3.27;;;3.00;;
4700;SDS011;8724;51.272;6.554;2023-07-31T15:12:56;4.07;;;3.20;;
4700;SDS011;8724;51.272;6.554;2023-07-31T15:15:25;4.10;;;3.70;;
4700;SDS011;8724;51.272;6.554;2023-07-31T15:17:55;4.17;;;3.00;;
4700;SDS011;8724;51.272;6.554;2023-07-31T15:20:23;3.63;;;2.83;;
4700;SDS011;8724;51.272;6.554;2023-07-31T15:22:52;4.23;;;3.80;;
4700;SDS011;8724;51.272;6.554;2023-07-31T15:25:20;4.83;;;3.70;;
4700;SDS011;8724;51.272;6.554;2023-07-31T15:27:49;4.00;;;3.53;;
4700;SDS011;8724;51.272;6.554;2023-07-31T15:30:17;3.20;;;2.83;;
4700;SDS011;8724;51.272;6.554;2023-07-31T15:32:46;3.73;;;3.00;;
4700;SDS011;8724;51.272;6.554;2023-07-31T15:35:18;4.50;;;3.77;;
4700;SDS011;8724;51.272;6.554;2023-07-31T15:37:48;4.87;;;3.20;;
4700;SDS011;8724;51.272;6.554;2023-07-31T15:40:16;4.17;;;3.30;;